sensor_id;sensor_type;location;lat;lon;timestamp;P1;durP1;ratioP1;P2;durP2;ratioP2
8887;SDS011;4480;52.370;9.748;2024-03-23T00:53:19;24.55;;;11.98;;
8887;SDS011;4480;52.370;9.748;2024-03-23T00:55:47;29.60;;;13.85;;
8887;SDS011;4480;52.370;9.748;2024-03-23T00:58:12;24.40;;;12.30;;
8887;SDS011;4480;52.370;9.748;2024-03-23T01:00:39;24.73;;;12.27;;
8887;SDS011;4480;52.370;9.748;2024-03-23T01:03:05;20.93;;;11.87;;
8887;SDS011;4480;52.370;9.748;2024-03-23T01:05:31;20.63;;;11.52;;
8887;SDS011;4480;52.370;9.748;2024-03-23T01:07:57;23.43;;;12.50;;
8887;SDS011;4480;52.370;9.748;2024-03-23T01:10:25;26.70;;;12.38;;
8887;SDS011;4480;52.370;9.748;2024-03-23T01:12:51;20.17;;;10.93;;
8887;SDS011;4480;52.370;9.748;2024-03-23T01:15:18;19.13;;;10.93;;
8887;SDS011;4480;52.370;9.748;2024-03-23T01:17:43;17.77;;;9.73;;
8887;SDS011;4480;52.370;9.748;2024-03-23T01:20:10;20.58;;;9.25;;
8887;SDS011;4480;52.370;9.748;2024-03-23T01:22:36;17.48;;;9.00;;
8887;SDS011;4480;52.370;9.748;2024-03-23T01:25:03;14.63;;;7.78;;
8887;SDS011;4480;52.370;9.748;2024-03-23T01:27:30;21.33;;;9.95;;
8887;SDS011;4480;52.370;9.748;2024-03-23T01:29:57;24.08;;;10.52;;
8887;SDS011;4480;52.370;9.748;2024-03-23T01:32:23;14.63;;;8.40;;
8887;SDS011;4480;52.370;9.748;2024-03-23T01:34:50;18.98;;;8.95;;
8887;SDS011;4480;52.370;9.748;2024-03-23T01:37:16;20.43;;;8.90;;
8887;SDS011;4480;52.370;9.748;2024-03-23T01:39:42;14.20;;;7.95;;
8887;SDS011;4480;52.370;9.748;2024-03-23T01:42:08;13.03;;;8.20;;
8887;SDS011;4480;52.370;9.748;2024-03-23T01:44:36;16.80;;;7.40;;
8887;SDS011;4480;52.370;9.748;2024-03-23T01:47:03;11.48;;;6.85;;
8887;SDS011;4480;52.370;9.748;2024-03-23T01:49:29;15.95;;;6.90;;
8887;SDS011;4480;52.370;9.748;2024-03-23T01:51:55;14.53;;;7.20;;
8887;SDS011;4480;52.370;9.748;2024-03-23T01:54:22;15.45;;;6.90;;
8887;SDS011;4480;52.370;9.748;2024-03-23T01:56:49;15.00;;;7.85;;
8887;SDS011;4480;52.370;9.748;2024-03-23T01:59:15;15.43;;;7.47;;
8887;SDS011;4480;52.370;9.748;2024-03-23T02:01:42;16.03;;;6.77;;
8887;SDS011;4480;52.370;9.748;2024-03-23T02:04:09;17.63;;;8.35;;
8887;SDS011;4480;52.370;9.748;2024-03-23T02:06:35;13.63;;;7.23;;
8887;SDS011;4480;52.370;9.748;2024-03-23T02:09:02;9.85;;;6.40;;
8887;SDS011;4480;52.370;9.748;2024-03-23T02:11:28;9.98;;;5.78;;
8887;SDS011;4480;52.370;9.748;2024-03-23T02:13:55;13.77;;;6.45;;
8887;SDS011;4480;52.370;9.748;2024-03-23T02:16:21;12.37;;;6.30;;
8887;SDS011;4480;52.370;9.748;2024-03-23T02:18:49;12.75;;;6.20;;
8887;SDS011;4480;52.370;9.748;2024-03-23T02:21:15;15.13;;;6.85;;
8887;SDS011;4480;52.370;9.748;2024-03-23T02:23:43;15.10;;;6.65;;
8887;SDS011;4480;52.370;9.748;2024-03-23T02:26:09;18.27;;;7.25;;
8887;SDS011;4480;52.370;9.748;2024-03-23T02:28:36;17.80;;;6.65;;
8887;SDS011;4480;52.370;9.748;2024-03-23T02:31:01;19.03;;;6.97;;
8887;SDS011;4480;52.370;9.748;2024-03-23T02:33:29;21.25;;;6.43;;
8887;SDS011;4480;52.370;9.748;2024-03-23T02:35:55;13.70;;;6.37;;
8887;SDS011;4480;52.370;9.748;2024-03-23T02:38:22;12.27;;;6.85;;
8887;SDS011;4480;52.370;9.748;2024-03-23T02:40:50;12.67;;;6.67;;
8887;SDS011;4480;52.370;9.748;2024-03-23T02:43:16;12.32;;;5.65;;
8887;SDS011;4480;52.370;9.748;2024-03-23T02:45:42;13.40;;;6.20;;
8887;SDS011;4480;52.370;9.748;2024-03-23T02:48:09;20.13;;;6.75;;
8887;SDS011;4480;52.370;9.748;2024-03-23T02:50:34;17.43;;;6.67;;
8887;SDS011;4480;52.370;9.748;2024-03-23T02:53:01;14.65;;;6.25;;
8887;SDS011;4480;52.370;9.748;2024-03-23T02:55:27;12.57;;;6.97;;
8887;SDS011;4480;52.370;9.748;2024-03-23T02:57:55;11.43;;;5.80;;
8887;SDS011;4480;52.370;9.748;2024-03-23T03:00:21;14.00;;;7.00;;
8887;SDS011;4480;52.370;9.748;2024-03-23T03:02:48;12.50;;;6.20;;
8887;SDS011;4480;52.370;9.748;2024-03-23T03:05:13;13.17;;;8.00;;
8887;SDS011;4480;52.370;9.748;2024-03-23T03:07:40;14.73;;;7.03;;
8887;SDS011;4480;52.370;9.748;2024-03-23T03:10:06;15.87;;;7.63;;
8887;SDS011;4480;52.370;9.748;2024-03-23T03:12:36;12.98;;;6.40;;
8887;SDS011;4480;52.370;9.748;2024-03-23T03:15:04;13.00;;;7.00;;
8887;SDS011;4480;52.370;9.748;2024-03-23T03:17:31;15.48;;;7.50;;
8887;SDS011;4480;52.370;9.748;2024-03-23T03:19:57;15.87;;;6.30;;
8887;SDS011;4480;52.370;9.748;2024-03-23T03:22:24;11.48;;;6.15;;
8887;SDS011;4480;52.370;9.748;2024-03-23T03:24:50;13.77;;;6.27;;
8887;SDS011;4480;52.370;9.748;2024-03-23T03:27:17;11.55;;;7.10;;
8887;SDS011;4480;52.370;9.748;2024-03-23T03:29:43;15.47;;;8.20;;
8887;SDS011;4480;52.370;9.748;2024-03-23T03:32:11;13.48;;;7.93;;
8887;SDS011;4480;52.370;9.748;2024-03-23T03:34:37;19.38;;;7.55;;
8887;SDS011;4480;52.370;9.748;2024-03-23T03:37:03;19.73;;;7.82;;
8887;SDS011;4480;52.370;9.748;2024-03-23T03:39:29;14.65;;;7.15;;
8887;SDS011;4480;52.370;9.748;2024-03-23T03:41:56;13.75;;;8.23;;
8887;SDS011;4480;52.370;9.748;2024-03-23T03:44:22;14.83;;;6.93;;
8887;SDS011;4480;52.370;9.748;2024-03-23T03:46:49;20.83;;;7.05;;
8887;SDS011;4480;52.370;9.748;2024-03-23T03:49:16;16.03;;;5.83;;
8887;SDS011;4480;52.370;9.748;2024-03-23T03:51:42;14.27;;;6.65;;
8887;SDS011;4480;52.370;9.748;2024-03-23T03:54:08;12.40;;;5.07;;
8887;SDS011;4480;52.370;9.748;2024-03-23T03:56:35;7.97;;;4.38;;
8887;SDS011;4480;52.370;9.748;2024-03-23T03:59:01;14.77;;;6.20;;
8887;SDS011;4480;52.370;9.748;2024-03-23T04:01:27;16.40;;;5.57;;
8887;SDS011;4480;52.370;9.748;2024-03-23T04:03:53;14.50;;;5.00;;
8887;SDS011;4480;52.370;9.748;2024-03-23T04:06:21;14.10;;;6.10;;
8887;SDS011;4480;52.370;9.748;2024-03-23T04:08:47;14.40;;;5.65;;
8887;SDS011;4480;52.370;9.748;2024-03-23T04:13:22;7.70;;;3.72;;
8887;SDS011;4480;52.370;9.748;2024-03-23T04:15:53;11.77;;;4.80;;
8887;SDS011;4480;52.370;9.748;2024-03-23T04:18:19;11.00;;;5.80;;
8887;SDS011;4480;52.370;9.748;2024-03-23T04:20:46;12.95;;;4.45;;
8887;SDS011;4480;52.370;9.748;2024-03-23T04:23:12;13.23;;;5.03;;
8887;SDS011;4480;52.370;9.748;2024-03-23T04:25:38;10.80;;;3.65;;
8887;SDS011;4480;52.370;9.748;2024-03-23T04:28:04;12.20;;;3.50;;
8887;SDS011;4480;52.370;9.748;2024-03-23T04:30:33;11.38;;;4.15;;
8887;SDS011;4480;52.370;9.748;2024-03-23T04:32:59;15.68;;;3.78;;
8887;SDS011;4480;52.370;9.748;2024-03-23T04:35:26;9.32;;;4.35;;
8887;SDS011;4480;52.370;9.748;2024-03-23T04:37:51;14.10;;;4.17;;
8887;SDS011;4480;52.370;9.748;2024-03-23T04:40:18;10.15;;;3.65;;
8887;SDS011;4480;52.370;9.748;2024-03-23T04:42:45;14.68;;;4.07;;
8887;SDS011;4480;52.370;9.748;2024-03-23T04:45:12;10.35;;;3.60;;
8887;SDS011;4480;52.370;9.748;2024-03-23T04:47:40;9.23;;;4.00;;
8887;SDS011;4480;52.370;9.748;2024-03-23T04:50:07;17.55;;;3.83;;
8887;SDS011;4480;52.370;9.748;2024-03-23T04:52:35;12.20;;;3.60;;
8887;SDS011;4480;52.370;9.748;2024-03-23T04:55:02;12.80;;;5.00;;
8887;SDS011;4480;52.370;9.748;2024-03-23T04:57:29;10.55;;;4.03;;
8887;SDS011;4480;52.370;9.748;2024-03-23T04:59:55;11.07;;;3.13;;
8887;SDS011;4480;52.370;9.748;2024-03-23T05:02:23;10.55;;;4.18;;
8887;SDS011;4480;52.370;9.748;2024-03-23T05:04:52;13.77;;;4.07;;
8887;SDS011;4480;52.370;9.748;2024-03-23T05:07:17;6.43;;;3.45;;
8887;SDS011;4480;52.370;9.748;2024-03-23T05:09:44;7.82;;;3.45;;
8887;SDS011;4480;52.370;9.748;2024-03-23T05:12:10;15.90;;;4.67;;
8887;SDS011;4480;52.370;9.748;2024-03-23T05:14:37;13.32;;;4.88;;
8887;SDS011;4480;52.370;9.748;2024-03-23T05:17:02;10.37;;;4.40;;
8887;SDS011;4480;52.370;9.748;2024-03-23T05:19:29;9.23;;;5.50;;
8887;SDS011;4480;52.370;9.748;2024-03-23T05:21:56;9.40;;;4.50;;
8887;SDS011;4480;52.370;9.748;2024-03-23T05:24:24;12.18;;;4.95;;
8887;SDS011;4480;52.370;9.748;2024-03-23T05:26:50;9.13;;;3.27;;
8887;SDS011;4480;52.370;9.748;2024-03-23T05:29:17;10.65;;;4.07;;
8887;SDS011;4480;52.370;9.748;2024-03-23T05:31:43;8.68;;;3.92;;
8887;SDS011;4480;52.370;9.748;2024-03-23T05:34:10;5.55;;;3.63;;
8887;SDS011;4480;52.370;9.748;2024-03-23T05:36:35;13.33;;;3.67;;
8887;SDS011;4480;52.370;9.748;2024-03-23T05:39:04;7.10;;;2.70;;
8887;SDS011;4480;52.370;9.748;2024-03-23T05:41:30;6.53;;;2.65;;
8887;SDS011;4480;52.370;9.748;2024-03-23T05:43:56;5.45;;;2.15;;
8887;SDS011;4480;52.370;9.748;2024-03-23T05:46:22;9.73;;;2.53;;
8887;SDS011;4480;52.370;9.748;2024-03-23T05:48:50;7.30;;;2.30;;
8887;SDS011;4480;52.370;9.748;2024-03-23T05:51:16;10.02;;;2.28;;
8887;SDS011;4480;52.370;9.748;2024-03-23T05:53:42;8.15;;;3.00;;
8887;SDS011;4480;52.370;9.748;2024-03-23T05:56:10;5.13;;;1.90;;
8887;SDS011;4480;52.370;9.748;2024-03-23T05:58:37;7.25;;;2.22;;
8887;SDS011;4480;52.370;9.748;2024-03-23T06:01:03;3.90;;;1.50;;
8887;SDS011;4480;52.370;9.748;2024-03-23T06:03:29;4.75;;;1.70;;
8887;SDS011;4480;52.370;9.748;2024-03-23T06:05:55;14.77;;;2.67;;
8887;SDS011;4480;52.370;9.748;2024-03-23T06:08:22;8.88;;;2.10;;
8887;SDS011;4480;52.370;9.748;2024-03-23T06:10:49;5.22;;;2.22;;
8887;SDS011;4480;52.370;9.748;2024-03-23T06:13:17;4.35;;;1.90;;
8887;SDS011;4480;52.370;9.748;2024-03-23T06:15:43;15.98;;;2.42;;
8887;SDS011;4480;52.370;9.748;2024-03-23T06:18:11;7.68;;;2.85;;
8887;SDS011;4480;52.370;9.748;2024-03-23T06:20:37;9.87;;;2.83;;
8887;SDS011;4480;52.370;9.748;2024-03-23T06:23:04;7.80;;;2.88;;
8887;SDS011;4480;52.370;9.748;2024-03-23T06:25:30;6.23;;;2.40;;
8887;SDS011;4480;52.370;9.748;2024-03-23T06:27:56;8.00;;;3.20;;
8887;SDS011;4480;52.370;9.748;2024-03-23T06:30:24;6.13;;;2.28;;
8887;SDS011;4480;52.370;9.748;2024-03-23T06:32:52;12.10;;;2.75;;
8887;SDS011;4480;52.370;9.748;2024-03-23T06:35:18;12.68;;;3.72;;
8887;SDS011;4480;52.370;9.748;2024-03-23T06:37:45;8.70;;;3.50;;
8887;SDS011;4480;52.370;9.748;2024-03-23T06:40:10;11.17;;;3.93;;
8887;SDS011;4480;52.370;9.748;2024-03-23T06:42:37;10.02;;;4.15;;
8887;SDS011;4480;52.370;9.748;2024-03-23T06:45:03;11.73;;;3.90;;
8887;SDS011;4480;52.370;9.748;2024-03-23T06:47:32;7.40;;;3.20;;
8887;SDS011;4480;52.370;9.748;2024-03-23T06:49:59;16.40;;;4.20;;
8887;SDS011;4480;52.370;9.748;2024-03-23T06:52:26;10.60;;;4.00;;
8887;SDS011;4480;52.370;9.748;2024-03-23T06:54:52;18.73;;;4.03;;
8887;SDS011;4480;52.370;9.748;2024-03-23T06:57:19;13.10;;;4.60;;
8887;SDS011;4480;52.370;9.748;2024-03-23T06:59:45;13.03;;;4.70;;
8887;SDS011;4480;52.370;9.748;2024-03-23T07:02:12;12.25;;;4.43;;
8887;SDS011;4480;52.370;9.748;2024-03-23T07:04:39;9.40;;;4.47;;
8887;SDS011;4480;52.370;9.748;2024-03-23T07:07:06;11.43;;;4.38;;
8887;SDS011;4480;52.370;9.748;2024-03-23T07:09:32;17.40;;;5.60;;
8887;SDS011;4480;52.370;9.748;2024-03-23T07:11:59;12.45;;;5.70;;
8887;SDS011;4480;52.370;9.748;2024-03-23T07:14:25;8.35;;;5.70;;
8887;SDS011;4480;52.370;9.748;2024-03-23T07:16:52;14.13;;;6.50;;
8887;SDS011;4480;52.370;9.748;2024-03-23T07:19:18;15.93;;;8.17;;
8887;SDS011;4480;52.370;9.748;2024-03-23T07:21:46;13.00;;;5.85;;
8887;SDS011;4480;52.370;9.748;2024-03-23T07:24:13;14.95;;;6.45;;
8887;SDS011;4480;52.370;9.748;2024-03-23T07:26:39;8.48;;;4.43;;
8887;SDS011;4480;52.370;9.748;2024-03-23T07:29:05;19.17;;;8.23;;
8887;SDS011;4480;52.370;9.748;2024-03-23T07:31:32;14.40;;;6.43;;
8887;SDS011;4480;52.370;9.748;2024-03-23T07:33:58;10.60;;;5.50;;
8887;SDS011;4480;52.370;9.748;2024-03-23T07:36:25;16.02;;;6.78;;
8887;SDS011;4480;52.370;9.748;2024-03-23T07:38:52;16.93;;;7.07;;
8887;SDS011;4480;52.370;9.748;2024-03-23T07:41:19;12.68;;;7.07;;
8887;SDS011;4480;52.370;9.748;2024-03-23T07:43:46;14.13;;;6.53;;
8887;SDS011;4480;52.370;9.748;2024-03-23T07:46:14;22.33;;;7.53;;
8887;SDS011;4480;52.370;9.748;2024-03-23T07:48:40;19.20;;;7.15;;
8887;SDS011;4480;52.370;9.748;2024-03-23T07:51:08;24.00;;;6.95;;
8887;SDS011;4480;52.370;9.748;2024-03-23T07:53:35;14.77;;;8.80;;
8887;SDS011;4480;52.370;9.748;2024-03-23T07:56:05;17.33;;;7.75;;
8887;SDS011;4480;52.370;9.748;2024-03-23T07:58:31;26.70;;;7.70;;
8887;SDS011;4480;52.370;9.748;2024-03-23T08:01:03;19.83;;;9.00;;
8887;SDS011;4480;52.370;9.748;2024-03-23T08:03:29;18.15;;;9.43;;
8887;SDS011;4480;52.370;9.748;2024-03-23T08:05:56;22.45;;;9.05;;
8887;SDS011;4480;52.370;9.748;2024-03-23T08:08:22;21.93;;;9.73;;
8887;SDS011;4480;52.370;9.748;2024-03-23T08:10:49;14.07;;;9.20;;
8887;SDS011;4480;52.370;9.748;2024-03-23T08:13:16;19.67;;;9.45;;
8887;SDS011;4480;52.370;9.748;2024-03-23T08:15:44;19.35;;;12.18;;
8887;SDS011;4480;52.370;9.748;2024-03-23T08:18:10;22.38;;;9.73;;
8887;SDS011;4480;52.370;9.748;2024-03-23T08:20:38;21.60;;;9.80;;
8887;SDS011;4480;52.370;9.748;2024-03-23T08:23:04;26.77;;;10.80;;
8887;SDS011;4480;52.370;9.748;2024-03-23T08:25:32;25.08;;;11.77;;
8887;SDS011;4480;52.370;9.748;2024-03-23T08:27:58;28.58;;;10.40;;
8887;SDS011;4480;52.370;9.748;2024-03-23T08:30:27;19.17;;;9.60;;
8887;SDS011;4480;52.370;9.748;2024-03-23T08:32:54;21.52;;;9.65;;
8887;SDS011;4480;52.370;9.748;2024-03-23T08:35:20;19.98;;;9.13;;
8887;SDS011;4480;52.370;9.748;2024-03-23T08:37:46;17.87;;;8.23;;
8887;SDS011;4480;52.370;9.748;2024-03-23T08:40:13;15.70;;;8.73;;
8887;SDS011;4480;52.370;9.748;2024-03-23T08:42:39;19.53;;;8.90;;
8887;SDS011;4480;52.370;9.748;2024-03-23T08:45:06;21.65;;;8.15;;
8887;SDS011;4480;52.370;9.748;2024-03-23T08:47:35;17.40;;;7.43;;
8887;SDS011;4480;52.370;9.748;2024-03-23T08:50:02;17.75;;;7.85;;
8887;SDS011;4480;52.370;9.748;2024-03-23T08:52:28;14.98;;;7.25;;
8887;SDS011;4480;52.370;9.748;2024-03-23T08:54:54;13.02;;;6.85;;
8887;SDS011;4480;52.370;9.748;2024-03-23T08:57:21;16.08;;;6.45;;
8887;SDS011;4480;52.370;9.748;2024-03-23T08:59:48;15.77;;;6.80;;
8887;SDS011;4480;52.370;9.748;2024-03-23T09:02:13;11.27;;;5.63;;
8887;SDS011;4480;52.370;9.748;2024-03-23T09:04:42;11.68;;;5.47;;
8887;SDS011;4480;52.370;9.748;2024-03-23T09:07:09;18.73;;;5.05;;
8887;SDS011;4480;52.370;9.748;2024-03-23T09:09:37;13.00;;;5.65;;
8887;SDS011;4480;52.370;9.748;2024-03-23T09:12:03;12.73;;;4.80;;
8887;SDS011;4480;52.370;9.748;2024-03-23T09:14:30;12.80;;;5.32;;
8887;SDS011;4480;52.370;9.748;2024-03-23T09:16:56;14.70;;;6.43;;
8887;SDS011;4480;52.370;9.748;2024-03-23T09:19:23;13.15;;;5.93;;
8887;SDS011;4480;52.370;9.748;2024-03-23T09:21:50;9.57;;;5.07;;
8887;SDS011;4480;52.370;9.748;2024-03-23T09:24:17;14.93;;;5.55;;
8887;SDS011;4480;52.370;9.748;2024-03-23T09:26:43;14.20;;;6.47;;
8887;SDS011;4480;52.370;9.748;2024-03-23T09:29:09;17.58;;;5.95;;
8887;SDS011;4480;52.370;9.748;2024-03-23T09:31:35;19.60;;;6.20;;
8887;SDS011;4480;52.370;9.748;2024-03-23T09:34:03;15.20;;;6.25;;
8887;SDS011;4480;52.370;9.748;2024-03-23T09:36:29;11.70;;;5.20;;
8887;SDS011;4480;52.370;9.748;2024-03-23T09:38:58;16.55;;;6.55;;
8887;SDS011;4480;52.370;9.748;2024-03-23T09:41:23;12.25;;;5.65;;
8887;SDS011;4480;52.370;9.748;2024-03-23T09:43:52;14.07;;;5.85;;
8887;SDS011;4480;52.370;9.748;2024-03-23T09:46:18;16.83;;;5.40;;
8887;SDS011;4480;52.370;9.748;2024-03-23T09:48:45;13.98;;;4.88;;
8887;SDS011;4480;52.370;9.748;2024-03-23T09:51:12;10.60;;;5.18;;
8887;SDS011;4480;52.370;9.748;2024-03-23T09:53:39;9.13;;;3.67;;
8887;SDS011;4480;52.370;9.748;2024-03-23T09:56:06;10.07;;;3.97;;
8887;SDS011;4480;52.370;9.748;2024-03-23T09:58:34;17.75;;;4.80;;
8887;SDS011;4480;52.370;9.748;2024-03-23T10:01:00;6.40;;;3.00;;
8887;SDS011;4480;52.370;9.748;2024-03-23T10:03:28;11.82;;;3.20;;
8887;SDS011;4480;52.370;9.748;2024-03-23T10:06:00;9.70;;;2.90;;
8887;SDS011;4480;52.370;9.748;2024-03-23T10:08:28;13.43;;;3.67;;
8887;SDS011;4480;52.370;9.748;2024-03-23T10:10:55;7.60;;;3.00;;
8887;SDS011;4480;52.370;9.748;2024-03-23T10:13:26;11.35;;;2.63;;
8887;SDS011;4480;52.370;9.748;2024-03-23T10:15:54;8.68;;;3.30;;
8887;SDS011;4480;52.370;9.748;2024-03-23T10:18:23;9.47;;;3.83;;
8887;SDS011;4480;52.370;9.748;2024-03-23T10:20:50;5.43;;;2.30;;
8887;SDS011;4480;52.370;9.748;2024-03-23T10:23:18;6.57;;;3.03;;
8887;SDS011;4480;52.370;9.748;2024-03-23T10:25:44;8.80;;;3.10;;
8887;SDS011;4480;52.370;9.748;2024-03-23T10:28:11;6.47;;;2.55;;
8887;SDS011;4480;52.370;9.748;2024-03-23T10:30:39;8.23;;;3.30;;
8887;SDS011;4480;52.370;9.748;2024-03-23T10:33:09;4.20;;;2.10;;
8887;SDS011;4480;52.370;9.748;2024-03-23T10:35:36;7.55;;;2.50;;
8887;SDS011;4480;52.370;9.748;2024-03-23T10:38:03;7.38;;;3.55;;
8887;SDS011;4480;52.370;9.748;2024-03-23T10:40:31;7.10;;;3.37;;
8887;SDS011;4480;52.370;9.748;2024-03-23T10:43:00;4.75;;;2.22;;
8887;SDS011;4480;52.370;9.748;2024-03-23T10:45:28;6.63;;;2.78;;
8887;SDS011;4480;52.370;9.748;2024-03-23T10:47:55;5.70;;;1.93;;
8887;SDS011;4480;52.370;9.748;2024-03-23T10:50:22;4.07;;;1.80;;
8887;SDS011;4480;52.370;9.748;2024-03-23T10:52:48;3.03;;;1.80;;
8887;SDS011;4480;52.370;9.748;2024-03-23T10:55:15;2.75;;;2.03;;
8887;SDS011;4480;52.370;9.748;2024-03-23T10:57:44;3.60;;;1.88;;
8887;SDS011;4480;52.370;9.748;2024-03-23T11:00:16;3.60;;;2.72;;
8887;SDS011;4480;52.370;9.748;2024-03-23T11:02:42;5.65;;;1.90;;
8887;SDS011;4480;52.370;9.748;2024-03-23T11:05:29;2.17;;;1.50;;
8887;SDS011;4480;52.370;9.748;2024-03-23T11:07:55;1.83;;;1.20;;
8887;SDS011;4480;52.370;9.748;2024-03-23T11:10:25;1.70;;;0.98;;
8887;SDS011;4480;52.370;9.748;2024-03-23T11:12:52;6.15;;;1.40;;
8887;SDS011;4480;52.370;9.748;2024-03-23T11:15:19;4.80;;;1.73;;
8887;SDS011;4480;52.370;9.748;2024-03-23T11:17:57;7.97;;;2.22;;
8887;SDS011;4480;52.370;9.748;2024-03-23T11:20:34;2.85;;;1.98;;
8887;SDS011;4480;52.370;9.748;2024-03-23T11:23:01;6.35;;;2.40;;
8887;SDS011;4480;52.370;9.748;2024-03-23T11:25:28;4.13;;;1.92;;
8887;SDS011;4480;52.370;9.748;2024-03-23T11:27:55;8.27;;;3.38;;
8887;SDS011;4480;52.370;9.748;2024-03-23T11:30:23;4.07;;;2.80;;
8887;SDS011;4480;52.370;9.748;2024-03-23T11:32:50;3.95;;;3.20;;
8887;SDS011;4480;52.370;9.748;2024-03-23T11:35:25;6.80;;;3.33;;
8887;SDS011;4480;52.370;9.748;2024-03-23T11:38:02;5.85;;;2.80;;
8887;SDS011;4480;52.370;9.748;2024-03-23T11:40:30;6.10;;;3.40;;
8887;SDS011;4480;52.370;9.748;2024-03-23T11:42:57;9.88;;;3.17;;
8887;SDS011;4480;52.370;9.748;2024-03-23T11:45:24;6.80;;;3.40;;
8887;SDS011;4480;52.370;9.748;2024-03-23T11:48:01;5.67;;;3.00;;
8887;SDS011;4480;52.370;9.748;2024-03-23T11:50:28;8.45;;;3.85;;
8887;SDS011;4480;52.370;9.748;2024-03-23T11:53:07;13.87;;;4.00;;
8887;SDS011;4480;52.370;9.748;2024-03-23T11:55:42;5.80;;;2.22;;
8887;SDS011;4480;52.370;9.748;2024-03-23T11:58:09;3.30;;;3.00;;
8887;SDS011;4480;52.370;9.748;2024-03-23T12:00:36;5.22;;;2.58;;
8887;SDS011;4480;52.370;9.748;2024-03-23T12:03:02;2.43;;;1.80;;
8887;SDS011;4480;52.370;9.748;2024-03-23T12:05:30;4.13;;;2.00;;
8887;SDS011;4480;52.370;9.748;2024-03-23T12:10:49;4.82;;;1.70;;
8887;SDS011;4480;52.370;9.748;2024-03-23T12:13:17;3.53;;;1.85;;
8887;SDS011;4480;52.370;9.748;2024-03-23T12:15:45;3.55;;;1.95;;
8887;SDS011;4480;52.370;9.748;2024-03-23T12:18:11;2.78;;;2.38;;
8887;SDS011;4480;52.370;9.748;2024-03-23T12:20:38;4.35;;;2.55;;
8887;SDS011;4480;52.370;9.748;2024-03-23T12:23:05;5.43;;;3.55;;
8887;SDS011;4480;52.370;9.748;2024-03-23T12:25:34;3.40;;;1.75;;
8887;SDS011;4480;52.370;9.748;2024-03-23T12:28:01;7.13;;;2.30;;
8887;SDS011;4480;52.370;9.748;2024-03-23T12:30:28;1.98;;;1.77;;
8887;SDS011;4480;52.370;9.748;2024-03-23T12:32:53;2.23;;;1.67;;
8887;SDS011;4480;52.370;9.748;2024-03-23T12:35:20;1.90;;;1.60;;
8887;SDS011;4480;52.370;9.748;2024-03-23T12:37:46;3.40;;;1.63;;
8887;SDS011;4480;52.370;9.748;2024-03-23T12:40:13;2.60;;;2.00;;
8887;SDS011;4480;52.370;9.748;2024-03-23T12:42:40;2.53;;;1.80;;
8887;SDS011;4480;52.370;9.748;2024-03-23T12:45:07;5.57;;;2.53;;
8887;SDS011;4480;52.370;9.748;2024-03-23T12:47:33;2.83;;;1.92;;
8887;SDS011;4480;52.370;9.748;2024-03-23T12:50:00;4.15;;;2.00;;
8887;SDS011;4480;52.370;9.748;2024-03-23T12:52:26;2.43;;;1.30;;
8887;SDS011;4480;52.370;9.748;2024-03-23T12:54:54;1.65;;;1.10;;
8887;SDS011;4480;52.370;9.748;2024-03-23T12:57:21;2.15;;;1.27;;
8887;SDS011;4480;52.370;9.748;2024-03-23T12:59:50;2.33;;;1.20;;
8887;SDS011;4480;52.370;9.748;2024-03-23T13:02:16;4.45;;;1.30;;
8887;SDS011;4480;52.370;9.748;2024-03-23T13:04:45;2.05;;;1.33;;
8887;SDS011;4480;52.370;9.748;2024-03-23T13:07:11;1.88;;;1.30;;
8887;SDS011;4480;52.370;9.748;2024-03-23T13:09:38;3.55;;;1.52;;
8887;SDS011;4480;52.370;9.748;2024-03-23T13:12:04;1.70;;;1.20;;
8887;SDS011;4480;52.370;9.748;2024-03-23T13:14:32;2.10;;;1.50;;
8887;SDS011;4480;52.370;9.748;2024-03-23T13:16:59;4.27;;;2.07;;
8887;SDS011;4480;52.370;9.748;2024-03-23T13:19:27;3.33;;;1.83;;
8887;SDS011;4480;52.370;9.748;2024-03-23T13:21:55;2.30;;;1.33;;
8887;SDS011;4480;52.370;9.748;2024-03-23T13:24:22;2.90;;;1.67;;
8887;SDS011;4480;52.370;9.748;2024-03-23T13:26:49;3.40;;;2.30;;
8887;SDS011;4480;52.370;9.748;2024-03-23T13:29:16;3.63;;;1.97;;
8887;SDS011;4480;52.370;9.748;2024-03-23T13:31:42;6.40;;;1.73;;
8887;SDS011;4480;52.370;9.748;2024-03-23T13:34:10;2.60;;;1.42;;
8887;SDS011;4480;52.370;9.748;2024-03-23T13:36:36;3.80;;;1.90;;
8887;SDS011;4480;52.370;9.748;2024-03-23T13:39:03;3.47;;;1.53;;
8887;SDS011;4480;52.370;9.748;2024-03-23T13:41:35;2.50;;;1.43;;
8887;SDS011;4480;52.370;9.748;2024-03-23T13:44:03;2.33;;;1.73;;
8887;SDS011;4480;52.370;9.748;2024-03-23T13:46:30;3.50;;;1.63;;
8887;SDS011;4480;52.370;9.748;2024-03-23T13:48:56;3.93;;;2.40;;
8887;SDS011;4480;52.370;9.748;2024-03-23T13:51:24;2.13;;;1.90;;
8887;SDS011;4480;52.370;9.748;2024-03-23T13:53:53;2.15;;;1.50;;
8887;SDS011;4480;52.370;9.748;2024-03-23T13:56:19;3.38;;;1.60;;
8887;SDS011;4480;52.370;9.748;2024-03-23T13:58:46;2.90;;;2.40;;
8887;SDS011;4480;52.370;9.748;2024-03-23T14:01:12;4.30;;;1.90;;
8887;SDS011;4480;52.370;9.748;2024-03-23T14:03:40;7.73;;;2.03;;
8887;SDS011;4480;52.370;9.748;2024-03-23T14:06:06;9.65;;;1.70;;
8887;SDS011;4480;52.370;9.748;2024-03-23T14:08:35;2.70;;;1.70;;
8887;SDS011;4480;52.370;9.748;2024-03-23T14:11:01;2.73;;;1.37;;
8887;SDS011;4480;52.370;9.748;2024-03-23T14:13:29;3.47;;;1.60;;
8887;SDS011;4480;52.370;9.748;2024-03-23T14:15:56;1.97;;;1.63;;
8887;SDS011;4480;52.370;9.748;2024-03-23T14:18:22;3.43;;;1.57;;
8887;SDS011;4480;52.370;9.748;2024-03-23T14:20:48;4.23;;;1.70;;
8887;SDS011;4480;52.370;9.748;2024-03-23T14:23:15;2.93;;;1.90;;
8887;SDS011;4480;52.370;9.748;2024-03-23T14:25:43;2.10;;;1.90;;
8887;SDS011;4480;52.370;9.748;2024-03-23T14:28:10;4.23;;;1.90;;
8887;SDS011;4480;52.370;9.748;2024-03-23T14:30:39;4.10;;;2.00;;
8887;SDS011;4480;52.370;9.748;2024-03-23T14:33:06;2.42;;;1.50;;
8887;SDS011;4480;52.370;9.748;2024-03-23T14:35:32;2.77;;;1.70;;
8887;SDS011;4480;52.370;9.748;2024-03-23T14:37:59;4.03;;;1.27;;
8887;SDS011;4480;52.370;9.748;2024-03-23T14:40:25;3.08;;;1.17;;
8887;SDS011;4480;52.370;9.748;2024-03-23T14:42:54;1.02;;;0.90;;
8887;SDS011;4480;52.370;9.748;2024-03-23T14:45:20;1.10;;;0.88;;
8887;SDS011;4480;52.370;9.748;2024-03-23T14:47:48;1.67;;;1.08;;
8887;SDS011;4480;52.370;9.748;2024-03-23T14:50:14;1.37;;;0.97;;
8887;SDS011;4480;52.370;9.748;2024-03-23T14:52:42;1.60;;;0.88;;
8887;SDS011;4480;52.370;9.748;2024-03-23T14:55:09;1.02;;;0.80;;
8887;SDS011;4480;52.370;9.748;2024-03-23T14:57:36;1.80;;;0.95;;
8887;SDS011;4480;52.370;9.748;2024-03-23T15:00:04;0.90;;;0.70;;
8887;SDS011;4480;52.370;9.748;2024-03-23T15:02:32;1.55;;;0.98;;
8887;SDS011;4480;52.370;9.748;2024-03-23T15:04:59;1.15;;;0.82;;
8887;SDS011;4480;52.370;9.748;2024-03-23T15:07:26;1.35;;;0.95;;
8887;SDS011;4480;52.370;9.748;2024-03-23T15:09:53;2.50;;;1.27;;
8887;SDS011;4480;52.370;9.748;2024-03-23T15:12:20;2.25;;;0.90;;
8887;SDS011;4480;52.370;9.748;2024-03-23T15:14:46;1.95;;;1.17;;
8887;SDS011;4480;52.370;9.748;2024-03-23T15:17:14;1.42;;;0.90;;
8887;SDS011;4480;52.370;9.748;2024-03-23T15:19:40;2.55;;;1.23;;
8887;SDS011;4480;52.370;9.748;2024-03-23T15:22:07;1.90;;;1.20;;
8887;SDS011;4480;52.370;9.748;2024-03-23T15:24:33;3.42;;;1.23;;
8887;SDS011;4480;52.370;9.748;2024-03-23T15:27:01;2.85;;;1.60;;
8887;SDS011;4480;52.370;9.748;2024-03-23T15:29:27;3.33;;;1.33;;
8887;SDS011;4480;52.370;9.748;2024-03-23T15:31:54;4.30;;;1.30;;
8887;SDS011;4480;52.370;9.748;2024-03-23T15:34:22;2.05;;;1.05;;
8887;SDS011;4480;52.370;9.748;2024-03-23T15:36:48;1.83;;;1.02;;
8887;SDS011;4480;52.370;9.748;2024-03-23T15:39:15;2.22;;;1.10;;
8887;SDS011;4480;52.370;9.748;2024-03-23T15:41:43;1.33;;;1.10;;
8887;SDS011;4480;52.370;9.748;2024-03-23T15:44:09;3.10;;;1.50;;
8887;SDS011;4480;52.370;9.748;2024-03-23T15:46:36;2.10;;;1.23;;
8887;SDS011;4480;52.370;9.748;2024-03-23T15:49:02;5.93;;;2.17;;
8887;SDS011;4480;52.370;9.748;2024-03-23T15:51:30;3.88;;;2.28;;
8887;SDS011;4480;52.370;9.748;2024-03-23T15:53:58;1.80;;;1.40;;
8887;SDS011;4480;52.370;9.748;2024-03-23T15:56:25;1.35;;;1.25;;
8887;SDS011;4480;52.370;9.748;2024-03-23T15:58:51;1.07;;;0.97;;
8887;SDS011;4480;52.370;9.748;2024-03-23T16:01:18;2.35;;;1.42;;
8887;SDS011;4480;52.370;9.748;2024-03-23T16:03:43;2.63;;;1.40;;